createdAt,value
2018-02-23T00:00:28.872Z,48.35
2018-02-23T00:02:56.363Z,46.72
2018-02-23T00:05:24.623Z,49.05
2018-02-23T00:07:52.124Z,51.10
2018-02-23T00:10:19.643Z,50.08
2018-02-23T00:12:47.141Z,48.00
2018-02-23T00:15:14.643Z,45.12
2018-02-23T00:17:42.144Z,48.15
2018-02-23T00:20:09.638Z,46.80
2018-02-23T00:22:42.028Z,46.83
2018-02-23T00:25:09.538Z,51.47
2018-02-23T00:27:37.046Z,45.38
2018-02-23T00:30:04.548Z,46.08
2018-02-23T00:32:32.816Z,48.97
2018-02-23T00:35:01.091Z,49.03
2018-02-23T00:37:29.378Z,46.03
2018-02-23T00:39:56.944Z,43.65
2018-02-23T00:42:24.447Z,47.15
2018-02-23T00:44:51.945Z,43.85
2018-02-23T00:47:20.219Z,45.92
2018-02-23T00:49:48.475Z,49.50
2018-02-23T00:52:15.970Z,45.47
2018-02-23T00:54:43.482Z,42.22
2018-02-23T00:57:10.982Z,48.30
2018-02-23T00:59:39.258Z,44.45
2018-02-23T01:02:06.764Z,43.60
2018-02-23T01:04:34.259Z,47.92
2018-02-23T01:07:02.519Z,46.25
2018-02-23T01:09:30.132Z,44.25
2018-02-23T01:11:57.902Z,47.65
2018-02-23T01:14:25.399Z,48.42
2018-02-23T01:16:52.893Z,45.35
2018-02-23T01:19:20.391Z,46.78
2018-02-23T01:21:47.901Z,46.70
2018-02-23T01:24:16.163Z,50.35
2018-02-23T01:26:44.435Z,48.05
2018-02-23T01:29:11.955Z,52.35
2018-02-23T01:31:39.456Z,52.85
2018-02-23T01:34:06.953Z,54.53
2018-02-23T01:36:34.460Z,50.50
2018-02-23T01:39:01.971Z,51.15
2018-02-23T01:41:29.502Z,48.85
2018-02-23T01:43:57.765Z,51.78
2018-02-23T01:46:25.335Z,48.53
2018-02-23T01:48:53.590Z,56.28
2018-02-23T01:51:21.087Z,49.92
2018-02-23T01:53:48.583Z,47.15
2018-02-23T01:56:16.083Z,46.50
2018-02-23T01:58:44.344Z,41.35
2018-02-23T02:01:12.611Z,47.03
2018-02-23T02:03:40.128Z,50.20
2018-02-23T02:06:07.655Z,47.60
2018-02-23T02:08:36.133Z,44.58
2018-02-23T02:11:04.411Z,44.10
2018-02-23T02:13:32.679Z,50.85
2018-02-23T02:16:00.179Z,49.53
2018-02-23T02:18:27.691Z,49.38
2018-02-23T02:20:55.195Z,45.28
2018-02-23T02:23:22.699Z,52.22
2018-02-23T02:25:50.204Z,48.28
2018-02-23T02:28:17.702Z,50.12
2018-02-23T02:30:45.199Z,53.47
2018-02-23T02:33:13.488Z,48.47
2018-02-23T02:35:40.991Z,48.97
2018-02-23T02:38:08.507Z,49.65
2018-02-23T02:40:36.063Z,49.22
2018-02-23T02:43:03.582Z,49.45
2018-02-23T02:45:31.083Z,47.90
2018-02-23T02:47:58.600Z,48.80
2018-02-23T02:50:26.100Z,45.88
2018-02-23T02:52:53.603Z,43.05
2018-02-23T02:55:21.109Z,43.38
2018-02-23T02:57:48.628Z,46.70
2018-02-23T03:00:16.135Z,43.85
2018-02-23T03:02:43.667Z,50.80
2018-02-23T03:05:11.956Z,53.13
2018-02-23T03:07:40.224Z,51.72
2018-02-23T03:10:08.511Z,47.72
2018-02-23T03:12:36.775Z,52.97
2018-02-23T03:15:05.054Z,59.80
2018-02-23T03:17:33.323Z,49.22
2018-02-23T03:20:00.925Z,47.60
2018-02-23T03:22:28.435Z,49.10
2018-02-23T03:24:56.698Z,45.10
2018-02-23T03:27:24.216Z,48.58
2018-02-23T03:29:51.724Z,53.78
2018-02-23T03:32:19.307Z,45.30
2018-02-23T03:34:47.577Z,50.30
2018-02-23T03:37:15.859Z,54.35
2018-02-23T03:39:44.143Z,44.65
2018-02-23T03:42:12.419Z,47.70
2018-02-23T03:44:39.939Z,48.42
2018-02-23T03:47:07.444Z,41.78
2018-02-23T03:49:34.952Z,48.05
2018-02-23T03:52:02.470Z,46.37
2018-02-23T03:54:29.975Z,49.88
2018-02-23T03:56:57.609Z,48.65
2018-02-23T03:59:25.126Z,47.70
2018-02-23T04:01:53.402Z,47.60
2018-02-23T04:04:21.684Z,45.20
2018-02-23T04:06:49.947Z,44.33
2018-02-23T04:09:18.210Z,49.75
2018-02-23T04:11:46.638Z,45.10
2018-02-23T04:14:14.139Z,43.47
2018-02-23T04:16:41.643Z,48.67
2018-02-23T04:19:09.150Z,45.12
2018-02-23T04:21:36.675Z,46.78
2018-02-23T04:24:04.175Z,44.35
2018-02-23T04:26:31.696Z,43.22
2018-02-23T04:28:59.207Z,46.67
2018-02-23T04:31:27.475Z,40.92
2018-02-23T04:33:54.980Z,49.22
2018-02-23T04:36:22.494Z,47.90
2018-02-23T04:38:50.769Z,40.42
2018-02-23T04:41:18.280Z,45.08
2018-02-23T04:43:45.790Z,44.30
2018-02-23T04:46:13.310Z,44.38
2018-02-23T04:48:40.823Z,43.05
2018-02-23T04:51:09.095Z,44.85
2018-02-23T04:53:37.362Z,46.13
2018-02-23T04:56:04.870Z,51.63
2018-02-23T04:58:32.375Z,47.35
2018-02-23T05:00:59.901Z,47.65
2018-02-23T05:03:27.407Z,50.42
2018-02-23T05:05:55.683Z,53.13
2018-02-23T05:08:23.992Z,46.80
2018-02-23T05:10:51.494Z,52.08
2018-02-23T05:13:19.006Z,53.78
2018-02-23T05:15:46.518Z,45.38
2018-02-23T05:18:14.034Z,51.90
2018-02-23T05:20:41.535Z,49.90
2018-02-23T05:23:09.038Z,45.88
2018-02-23T05:25:36.538Z,46.10
2018-02-23T05:28:04.055Z,52.92
2018-02-23T05:30:31.550Z,50.05
2018-02-23T05:32:59.071Z,50.33
2018-02-23T05:35:26.570Z,49.00
2018-02-23T05:37:54.085Z,52.83
2018-02-23T05:40:21.590Z,47.15
2018-02-23T05:42:49.100Z,45.55
2018-02-23T05:45:16.603Z,51.20
2018-02-23T05:47:44.113Z,45.25
2018-02-23T05:50:11.655Z,49.97
2018-02-23T05:52:39.959Z,46.92
2018-02-23T05:55:07.478Z,50.17
2018-02-23T05:57:35.743Z,50.10
2018-02-23T06:00:03.266Z,47.47
2018-02-23T06:02:30.782Z,48.60
2018-02-23T06:04:59.050Z,43.50
2018-02-23T06:07:27.328Z,47.40
2018-02-23T06:09:55.602Z,48.15
2018-02-23T06:12:23.879Z,48.35
2018-02-23T06:14:52.149Z,45.22
2018-02-23T06:17:26.007Z,51.67
2018-02-23T06:19:59.114Z,43.38
2018-02-23T06:22:26.618Z,47.65
2018-02-23T06:24:54.899Z,43.22
2018-02-23T06:27:23.164Z,42.03
2018-02-23T06:29:51.448Z,47.78
2018-02-23T06:32:19.748Z,46.30
2018-02-23T06:34:47.271Z,44.50
2018-02-23T06:37:14.770Z,48.25
2018-02-23T06:39:42.300Z,46.15
2018-02-23T06:42:10.574Z,47.35
2018-02-23T06:44:38.836Z,42.35
2018-02-23T06:47:12.279Z,45.67
2018-02-23T06:49:39.793Z,50.58
2018-02-23T06:52:07.341Z,45.15
2018-02-23T06:54:34.960Z,47.50
2018-02-23T06:57:02.481Z,42.97
2018-02-23T06:59:30.763Z,42.42
2018-02-23T07:01:59.171Z,50.03
2018-02-23T07:04:26.691Z,48.38
2018-02-23T07:06:54.983Z,46.40
2018-02-23T07:09:23.283Z,41.88
2018-02-23T07:11:50.794Z,41.55
2018-02-23T07:14:19.070Z,47.30
2018-02-23T07:16:46.571Z,46.83
2018-02-23T07:19:14.071Z,41.75
2018-02-23T07:21:41.584Z,45.95
2018-02-23T07:24:09.103Z,44.83
2018-02-23T07:26:36.610Z,43.00
2018-02-23T07:29:04.108Z,39.88
2018-02-23T07:31:31.622Z,40.80
2018-02-23T07:33:59.138Z,42.88
2018-02-23T07:36:26.663Z,44.00
2018-02-23T07:38:54.159Z,48.28
2018-02-23T07:41:21.679Z,42.20
2018-02-23T07:43:49.178Z,39.22
2018-02-23T07:46:16.780Z,39.33
2018-02-23T07:48:44.282Z,41.85
2018-02-23T07:51:11.811Z,43.40
2018-02-23T07:53:39.324Z,41.75
2018-02-23T07:56:07.588Z,41.78
2018-02-23T07:58:35.089Z,42.83
2018-02-23T08:01:02.599Z,42.60
2018-02-23T08:03:30.867Z,40.72
2018-02-23T08:05:58.372Z,40.88
2018-02-23T08:08:25.871Z,40.50
2018-02-23T08:10:53.363Z,39.13
2018-02-23T08:13:21.702Z,39.75
2018-02-23T08:15:49.208Z,43.83
2018-02-23T08:18:17.474Z,44.05
2018-02-23T08:20:45.743Z,46.13
2018-02-23T08:23:13.325Z,38.72
2018-02-23T08:25:40.923Z,48.67
2018-02-23T08:28:08.432Z,42.15
2018-02-23T08:30:36.701Z,38.25
2018-02-23T08:33:04.194Z,38.83
2018-02-23T08:35:31.706Z,41.20
2018-02-23T08:37:59.207Z,42.22
2018-02-23T08:40:26.720Z,43.17
2018-02-23T08:42:55.744Z,43.78
2018-02-23T08:45:24.007Z,42.58
2018-02-23T08:47:52.272Z,39.92
2018-02-23T08:50:19.780Z,44.03
2018-02-23T08:52:47.306Z,45.88
2018-02-23T08:55:15.564Z,40.50
2018-02-23T08:57:43.063Z,48.17
2018-02-23T09:00:19.243Z,47.22
2018-02-23T09:02:46.752Z,42.58
2018-02-23T09:05:14.248Z,43.35
2018-02-23T09:07:41.756Z,44.90
2018-02-23T09:10:09.276Z,48.55
2018-02-23T09:12:36.810Z,43.47
2018-02-23T09:15:04.311Z,45.08
2018-02-23T09:17:31.823Z,40.88
2018-02-23T09:20:00.091Z,44.72
2018-02-23T09:22:28.370Z,48.58
2018-02-23T09:24:56.631Z,44.67
2018-02-23T09:27:24.895Z,46.85
2018-02-23T09:29:52.395Z,45.22
2018-02-23T09:45:42.284Z,41.30
2018-02-23T09:48:09.810Z,39.03
2018-02-23T09:50:38.071Z,42.72
2018-02-23T09:53:05.581Z,42.28
2018-02-23T09:55:34.095Z,42.45
2018-02-23T09:58:01.583Z,42.72
2018-02-23T10:00:29.866Z,44.47
2018-02-23T10:02:58.135Z,37.55
2018-02-23T10:05:26.397Z,43.25
2018-02-23T10:07:53.895Z,43.13
2018-02-23T10:10:21.395Z,44.15
2018-02-23T10:12:48.893Z,40.03
2018-02-23T10:15:16.399Z,45.72
2018-02-23T10:17:43.898Z,45.00
2018-02-23T10:20:12.163Z,47.85
2018-02-23T10:22:40.430Z,47.80
2018-02-23T10:25:07.949Z,44.75
2018-02-23T10:27:35.459Z,47.53
2018-02-23T10:30:03.740Z,42.03
2018-02-23T10:32:32.011Z,44.90
2018-02-23T10:35:00.271Z,42.90
2018-02-23T10:37:27.779Z,42.90
2018-02-23T10:39:55.274Z,43.13
2018-02-23T10:42:22.784Z,43.05
2018-02-23T10:44:50.287Z,45.63
2018-02-23T10:47:17.794Z,43.92
2018-02-23T10:49:46.057Z,41.72
2018-02-23T10:52:14.327Z,43.47
2018-02-23T10:54:41.914Z,47.75
2018-02-23T10:57:09.416Z,43.60
2018-02-23T10:59:36.927Z,44.83
2018-02-23T11:02:04.425Z,48.70
2018-02-23T11:04:31.922Z,47.53
2018-02-23T11:07:00.207Z,43.87
2018-02-23T11:09:28.495Z,45.30
2018-02-23T11:11:56.015Z,44.35
2018-02-23T11:14:25.626Z,48.20
2018-02-23T11:16:53.139Z,42.97
2018-02-23T11:19:20.641Z,48.63
2018-02-23T11:21:48.933Z,46.03
2018-02-23T11:24:17.208Z,54.95
2018-02-23T11:26:45.483Z,51.67
2018-02-23T11:29:13.760Z,48.30
2018-02-23T11:31:41.257Z,52.83
2018-02-23T11:34:08.768Z,48.28
2018-02-23T11:36:36.267Z,48.60
2018-02-23T11:39:03.808Z,58.63
2018-02-23T11:41:32.083Z,55.67
2018-02-23T11:44:00.354Z,50.28
2018-02-23T11:46:28.654Z,46.72
2018-02-23T11:48:56.147Z,52.97
2018-02-23T11:51:23.665Z,51.10
2018-02-23T11:53:51.182Z,56.17
2018-02-23T11:56:18.686Z,59.03
2018-02-23T11:58:46.207Z,53.50
2018-02-23T12:01:13.703Z,53.15
2018-02-23T12:03:41.202Z,58.67
2018-02-23T12:06:08.699Z,59.55
2018-02-23T12:08:36.981Z,57.38
2018-02-23T12:11:05.247Z,64.32
2018-02-23T12:13:33.511Z,58.55
2018-02-23T12:16:01.023Z,55.75
2018-02-23T12:18:28.528Z,66.70
2018-02-23T12:20:56.031Z,62.88
2018-02-23T12:23:23.535Z,62.22
2018-02-23T12:25:51.032Z,61.30
2018-02-23T12:28:19.286Z,57.00
2018-02-23T12:30:46.893Z,64.47
2018-02-23T12:33:14.387Z,60.00
2018-02-23T12:35:41.901Z,69.20
2018-02-23T12:38:09.416Z,57.75
2018-02-23T12:40:36.925Z,64.95
2018-02-23T12:43:04.439Z,59.65
2018-02-23T12:45:32.712Z,58.90
2018-02-23T12:48:00.985Z,57.78
2018-02-23T12:50:28.491Z,61.97
2018-02-23T12:52:55.995Z,59.90
2018-02-23T12:55:23.492Z,63.90
2018-02-23T12:57:51.015Z,65.57
2018-02-23T13:00:18.560Z,55.28
2018-02-23T13:02:46.084Z,56.45
2018-02-23T13:05:13.606Z,55.10
2018-02-23T13:07:41.870Z,61.97
2018-02-23T13:10:09.375Z,57.28
2018-02-23T13:12:36.893Z,50.78
2018-02-23T13:15:10.187Z,65.35
2018-02-23T13:17:37.678Z,57.60
2018-02-23T13:20:05.196Z,57.80
2018-02-23T13:22:32.690Z,50.60
2018-02-23T13:25:00.237Z,56.17
2018-02-23T13:27:28.496Z,50.42
2018-02-23T13:29:55.997Z,49.85
2018-02-23T13:32:23.491Z,60.65
2018-02-23T13:34:50.987Z,49.47
2018-02-23T13:37:19.252Z,50.30
2018-02-23T13:39:53.120Z,50.53
2018-02-23T13:42:23.319Z,51.72
2018-02-23T13:44:50.839Z,53.45
2018-02-23T13:47:18.355Z,62.20
2018-02-23T13:49:45.852Z,61.33
2018-02-23T13:52:13.376Z,55.58
2018-02-23T13:54:40.871Z,59.53
2018-02-23T13:57:09.143Z,57.40
2018-02-23T13:59:36.664Z,60.88
2018-02-23T14:02:04.162Z,52.22
2018-02-23T14:04:31.667Z,56.80
2018-02-23T14:07:04.787Z,50.92
2018-02-23T14:09:32.279Z,46.72
2018-02-23T14:12:00.544Z,52.92
2018-02-23T14:14:28.033Z,58.15
2018-02-23T14:16:55.527Z,54.85
2018-02-23T14:19:23.039Z,50.58
2018-02-23T14:21:51.304Z,57.17
2018-02-23T14:24:19.570Z,62.78
2018-02-23T14:26:47.893Z,52.40
2018-02-23T14:29:15.402Z,45.78
2018-02-23T14:31:42.915Z,55.00
2018-02-23T14:34:10.427Z,51.72
2018-02-23T14:36:38.694Z,51.33
2018-02-23T14:39:06.200Z,53.85
2018-02-23T14:41:33.720Z,58.38
2018-02-23T14:44:02.003Z,62.85
2018-02-23T14:46:30.267Z,63.15
2018-02-23T14:49:10.484Z,62.75
2018-02-23T14:51:37.986Z,60.58
2018-02-23T14:54:05.506Z,58.90
2018-02-23T14:56:33.007Z,51.70
2018-02-23T14:59:01.296Z,52.90
2018-02-23T15:01:29.583Z,55.12
2018-02-23T15:03:57.086Z,53.42
2018-02-23T15:06:24.613Z,54.45
2018-02-23T15:08:52.111Z,54.80
2018-02-23T15:11:19.610Z,56.22
2018-02-23T15:13:47.907Z,56.53
2018-02-23T15:16:15.411Z,52.60
2018-02-23T15:18:42.927Z,52.25
2018-02-23T15:21:10.418Z,54.15
2018-02-23T15:23:37.919Z,64.80
2018-02-23T15:26:06.218Z,62.40
2018-02-23T15:28:33.723Z,63.60
2018-02-23T15:31:14.825Z,65.95
2018-02-23T15:33:43.101Z,56.03
2018-02-23T15:36:11.367Z,60.78
2018-02-23T15:38:39.639Z,58.30
2018-02-23T15:41:07.175Z,58.35
2018-02-23T15:43:34.678Z,48.80
2018-02-23T15:46:02.975Z,62.33
2018-02-23T15:48:33.986Z,51.35
2018-02-23T15:51:07.896Z,53.80
2018-02-23T15:53:36.174Z,55.45
2018-02-23T15:56:04.445Z,54.92
2018-02-23T15:58:36.268Z,56.97
2018-02-23T16:01:03.779Z,56.83
2018-02-23T16:03:31.290Z,55.55
2018-02-23T16:05:58.791Z,55.70
2018-02-23T16:08:27.056Z,61.80
2018-02-23T16:10:55.323Z,59.60
2018-02-23T16:13:23.611Z,65.72
2018-02-23T16:15:51.893Z,61.67
2018-02-23T16:18:20.155Z,55.47
2018-02-23T16:20:48.429Z,64.75
2018-02-23T16:23:15.927Z,54.55
2018-02-23T16:25:43.457Z,55.97
2018-02-23T16:28:11.725Z,55.17
2018-02-23T16:30:40.012Z,61.22
2018-02-23T16:33:08.288Z,60.75
2018-02-23T16:35:36.550Z,59.90
2018-02-23T16:38:04.828Z,62.47
2018-02-23T16:40:33.087Z,64.00
2018-02-23T16:43:00.602Z,67.85
2018-02-23T16:45:28.111Z,61.60
2018-02-23T16:47:56.387Z,55.40
2018-02-23T16:50:24.650Z,64.10
2018-02-23T16:52:52.147Z,58.85
2018-02-23T16:55:20.412Z,55.03
2018-02-23T16:57:48.677Z,54.53
2018-02-23T17:00:16.206Z,55.50
2018-02-23T17:02:43.719Z,57.40
2018-02-23T17:05:12.000Z,54.95
2018-02-23T17:07:39.494Z,52.70
2018-02-23T17:10:06.989Z,60.45
2018-02-23T17:12:34.504Z,62.38
2018-02-23T17:15:02.049Z,59.00
2018-02-23T17:17:29.556Z,58.20
2018-02-23T17:19:57.071Z,62.25
2018-02-23T17:22:24.562Z,67.95
2018-02-23T17:24:52.083Z,62.58
2018-02-23T17:27:19.580Z,58.67
2018-02-23T17:29:47.076Z,57.60
2018-02-23T17:32:15.343Z,52.22
2018-02-23T17:34:43.606Z,64.95
2018-02-23T17:37:11.109Z,63.78
2018-02-23T17:39:38.614Z,70.57
2018-02-23T17:42:06.116Z,67.30
2018-02-23T17:44:33.611Z,68.82
2018-02-23T17:47:01.107Z,68.57
2018-02-23T17:49:29.388Z,70.50
2018-02-23T17:51:57.660Z,80.25
2018-02-23T17:54:25.922Z,70.78
2018-02-23T17:56:53.414Z,72.70
2018-02-23T17:59:20.931Z,75.65
2018-02-23T18:01:48.435Z,83.57
2018-02-23T18:04:15.928Z,65.70
2018-02-23T18:06:43.427Z,60.15
2018-02-23T18:09:11.701Z,59.08
2018-02-23T18:11:39.987Z,61.22
2018-02-23T18:14:08.267Z,64.82
2018-02-23T18:16:36.532Z,56.25
2018-02-23T18:19:04.804Z,60.28
2018-02-23T18:21:32.310Z,67.85
2018-02-23T18:23:59.804Z,58.97
2018-02-23T18:26:27.292Z,59.25
2018-02-23T18:28:55.551Z,65.80
2018-02-23T18:31:23.053Z,64.65
2018-02-23T18:33:50.561Z,63.72
2018-02-23T18:36:18.071Z,61.03
2018-02-23T18:38:45.603Z,63.63
2018-02-23T18:41:13.863Z,56.55
2018-02-23T18:43:41.370Z,55.78
2018-02-23T18:46:08.870Z,52.58
2018-02-23T18:48:37.155Z,62.08
2018-02-23T18:51:04.647Z,62.72
2018-02-23T18:53:32.143Z,55.03
2018-02-23T18:55:59.643Z,61.70
2018-02-23T18:58:27.907Z,55.78
2018-02-23T19:00:55.410Z,58.13
2018-02-23T19:03:22.935Z,63.40
2018-02-23T19:05:51.230Z,65.82
2018-02-23T19:08:18.731Z,62.30
2018-02-23T19:10:46.234Z,56.95
2018-02-23T19:13:15.725Z,55.78
2018-02-23T19:15:44.088Z,74.90
2018-02-23T19:18:11.605Z,69.95
2018-02-23T19:20:39.094Z,68.85
2018-02-23T19:23:06.641Z,76.28
2018-02-23T19:25:34.146Z,64.65
2018-02-23T19:28:02.476Z,64.95
2018-02-23T19:30:29.999Z,72.28
2018-02-23T19:32:57.502Z,72.82
2018-02-23T19:35:25.009Z,70.82
2018-02-23T19:37:53.328Z,70.10
2018-02-23T19:40:20.845Z,70.47
2018-02-23T19:42:49.136Z,71.05
2018-02-23T19:45:16.715Z,64.50
2018-02-23T19:47:44.207Z,64.78
2018-02-23T19:50:11.727Z,64.95
2018-02-23T19:52:39.234Z,61.50
2018-02-23T19:55:06.748Z,55.95
2018-02-23T19:57:34.293Z,64.62
2018-02-23T20:00:01.840Z,66.90
2018-02-23T20:02:29.344Z,68.68
2018-02-23T20:04:56.848Z,55.33
2018-02-23T20:07:25.172Z,56.83
2018-02-23T20:09:52.749Z,56.75
2018-02-23T20:12:20.267Z,70.18
2018-02-23T20:14:47.789Z,60.10
2018-02-23T20:17:16.082Z,52.33
2018-02-23T20:19:43.607Z,60.40
2018-02-23T20:22:11.179Z,51.50
2018-02-23T20:24:38.672Z,61.45
2018-02-23T20:27:06.224Z,56.80
2018-02-23T20:29:33.783Z,53.40
2018-02-23T20:32:01.432Z,55.75
2018-02-23T20:34:29.729Z,59.25
2018-02-23T20:36:57.226Z,57.28
2018-02-23T20:39:24.742Z,51.28
2018-02-23T20:41:52.286Z,55.42
2018-02-23T20:44:20.576Z,51.85
2018-02-23T20:46:48.103Z,59.45
2018-02-23T20:49:16.387Z,53.60
2018-02-23T20:51:44.652Z,55.70
2018-02-23T20:54:12.165Z,56.33
2018-02-23T20:56:39.706Z,56.25
2018-02-23T20:59:07.230Z,52.30
2018-02-23T21:01:34.728Z,57.88
2018-02-23T21:04:02.240Z,49.85
2018-02-23T21:06:29.759Z,54.38
2018-02-23T21:08:57.263Z,50.63
2018-02-23T21:11:24.779Z,54.17
2018-02-23T21:13:52.287Z,55.47
2018-02-23T21:16:19.792Z,51.47
2018-02-23T21:18:47.344Z,50.58
2018-02-23T21:21:14.863Z,55.17
2018-02-23T21:23:43.180Z,47.15
2018-02-23T21:26:10.715Z,52.62
2018-02-23T21:28:38.995Z,50.12
2018-02-23T21:31:06.560Z,48.65
2018-02-23T21:33:34.075Z,53.67
2018-02-23T21:36:01.586Z,46.28
2018-02-23T21:38:29.093Z,47.80
2018-02-23T21:40:56.604Z,45.38
2018-02-23T21:43:24.104Z,50.83
2018-02-23T21:45:51.609Z,45.08
2018-02-23T21:48:19.115Z,44.92
2018-02-23T21:50:46.616Z,45.00
2018-02-23T21:53:14.891Z,40.95
2018-02-23T21:55:43.160Z,43.65
2018-02-23T21:58:11.427Z,43.10
2018-02-23T22:00:38.939Z,42.78
2018-02-23T22:03:06.442Z,48.38
2018-02-23T22:05:33.944Z,46.72
2018-02-23T22:08:04.303Z,47.22
2018-02-23T22:10:31.814Z,48.03
2018-02-23T22:12:59.317Z,44.05
2018-02-23T22:15:26.815Z,45.45
2018-02-23T22:17:55.098Z,46.65
2018-02-23T22:20:23.375Z,44.80
2018-02-23T22:22:51.650Z,47.67
2018-02-23T22:25:19.919Z,44.67
2018-02-23T22:27:48.219Z,41.47
2018-02-23T22:30:15.775Z,41.58
2018-02-23T22:32:43.261Z,45.20
2018-02-23T22:35:10.781Z,42.47
2018-02-23T22:37:39.046Z,39.25
2018-02-23T22:40:07.320Z,35.55
2018-02-23T22:42:35.590Z,38.97
2018-02-23T22:45:03.860Z,39.65
2018-02-23T22:47:31.355Z,37.85
2018-02-23T22:49:58.850Z,32.88
2018-02-23T22:52:26.362Z,34.03
2018-02-23T22:54:54.635Z,30.55
2018-02-23T22:57:22.903Z,34.03
2018-02-23T22:59:51.179Z,34.95
2018-02-23T23:02:19.459Z,32.10
2018-02-23T23:04:47.732Z,30.27
2018-02-23T23:07:15.999Z,29.40
2018-02-23T23:09:43.497Z,33.20
2018-02-23T23:12:11.067Z,27.15
2018-02-23T23:14:39.304Z,31.60
2018-02-23T23:17:07.600Z,30.45
2018-02-23T23:19:35.110Z,31.55
2018-02-23T23:22:02.615Z,26.55
2018-02-23T23:24:30.139Z,29.70
2018-02-23T23:26:57.663Z,31.80
2018-02-23T23:29:25.174Z,29.25
2018-02-23T23:31:53.439Z,29.80
2018-02-23T23:34:21.015Z,33.35
2018-02-23T23:36:49.279Z,32.03
2018-02-23T23:39:17.555Z,36.45
2018-02-23T23:41:45.836Z,34.10
2018-02-23T23:44:14.115Z,38.05
2018-02-23T23:46:42.395Z,34.15
2018-02-23T23:49:10.662Z,36.35
2018-02-23T23:51:38.943Z,35.25
2018-02-23T23:54:07.206Z,38.80
2018-02-23T23:56:34.707Z,38.15
2018-02-23T23:59:02.203Z,38.47
